Time;durP1;ratioP1;P1;durP2;ratioP2;P2;SDS_P1;SDS_P2;PMS_P1;PMS_P2;Temp;Humidity;BMP_temperature;BMP_pressure;BME280_temperature;BME280_humidity;BME280_pressure;Samples;Min_cycle;Max_cycle;Signal;HPM_P1;HPM_P2
2021/10/11 04:46:36;;;;;;;10.15;5.13;;;;;;;-144.51;100.00;69251.94;5340301;23;20282;-77
2021/10/11 04:49:21;;;;;;;20.10;6.00;;;;;;;-144.51;100.00;69251.94;4896217;29;20049;-77
2021/10/11 04:52:25;;;;;;;;;;;;;;;-144.51;100.00;69251.94;4878734;29;20052;-77
2021/10/11 04:55:09;;;;;;;17.52;6.25;;;;;;;-144.51;100.00;69251.94;4895647;29;20265;-77
2021/10/11 04:58:12;;;;;;;9.93;6.15;;;;;;;-144.51;100.00;69251.94;4877024;29;20045;-78
2021/10/11 05:00:58;;;;;;;11.02;7.53;;;;;;;-144.51;100.00;69251.94;4905893;23;20060;-79
2021/10/11 05:03:43;;;;;;;19.45;6.45;;;;;;;-144.51;100.00;69251.94;4890338;29;20052;-79
2021/10/11 05:06:28;;;;;;;10.43;5.75;;;;;;;-144.51;100.00;69251.94;4890666;29;20044;-79
2021/10/11 05:09:13;;;;;;;17.75;6.72;;;;;;;-144.51;100.00;69251.94;4894309;29;20041;-79
2021/10/11 05:11:58;;;;;;;11.63;5.03;;;;;;;-144.51;100.00;69251.94;4892783;29;20505;-79
2021/10/11 05:14:42;;;;;;;12.65;6.30;;;;;;;-144.51;100.00;69251.94;4892688;29;20673;-79
2021/10/11 05:17:27;;;;;;;14.15;7.32;;;;;;;-144.51;100.00;69251.94;4874920;29;20416;-79
2021/10/11 05:20:12;;;;;;;12.52;6.30;;;;;;;-144.51;100.00;69251.94;4884927;29;20040;-79
2021/10/11 05:22:57;;;;;;;13.43;8.43;;;;;;;-144.51;100.00;69251.94;4893892;29;20040;-79
2021/10/11 05:25:42;;;;;;;21.02;8.73;;;;;;;-144.51;100.00;69251.94;4892282;29;20417;-77
2021/10/11 05:28:45;;;;;;;16.25;6.78;;;;;;;-144.51;100.00;69251.94;4892888;29;20049;-79
2021/10/11 05:31:31;;;;;;;13.02;7.43;;;;;;;-144.51;100.00;69251.94;4901982;29;20044;-79
2021/10/11 05:34:35;;;;;;;9.65;5.15;;;;;;;-144.51;100.00;69251.94;4897232;29;20048;-79
2021/10/11 05:37:20;;;;;;;19.88;9.95;;;;;;;-144.51;100.00;69251.94;4889697;29;20040;-81
2021/10/11 05:40:07;;;;;;;15.15;6.25;;;;;;;-144.51;100.00;69251.94;4894112;29;20037;-79
2021/10/11 05:42:51;;;;;;;13.25;6.68;;;;;;;-144.51;100.00;69251.94;4892490;29;20048;-79
2021/10/11 05:45:36;;;;;;;19.75;6.30;;;;;;;-144.51;100.00;69251.94;4895420;29;20040;-78
2021/10/11 05:48:21;;;;;;;16.25;7.30;;;;;;;-144.51;100.00;69251.94;4892007;29;20045;-77
2021/10/11 05:51:05;;;;;;;22.55;5.63;;;;;;;-144.51;100.00;69251.94;4903652;29;20048;-78
2021/10/11 05:53:50;;;;;;;18.35;7.20;;;;;;;-144.51;100.00;69251.94;4899710;29;20070;-78
2021/10/11 05:56:34;;;;;;;16.63;6.55;;;;;;;-144.51;100.00;69251.94;4899751;29;20052;-78
2021/10/11 05:59:19;;;;;;;;;;;;;;;-144.51;100.00;69251.94;4904193;29;20040;-78
2021/10/11 06:02:04;;;;;;;19.48;7.72;;;;;;;-144.51;100.00;69251.94;4900661;29;19919;-77
2021/10/11 06:05:08;;;;;;;12.27;7.10;;;;;;;-144.51;100.00;69251.94;4897013;29;20040;-79
2021/10/11 06:07:53;;;;;;;16.17;6.30;;;;;;;-144.51;100.00;69251.94;4892133;29;20541;-78
2021/10/11 06:10:38;;;;;;;10.25;6.28;;;;;;;-144.51;100.00;69251.94;4891712;29;20037;-79
2021/10/11 06:16:26;;;;;;;20.27;7.97;;;;;;;-144.51;100.00;69251.94;4894310;29;20409;-77
2021/10/11 06:19:11;;;;;;;16.55;8.13;;;;;;;-144.51;100.00;69251.94;4895545;29;20044;-79
2021/10/11 06:21:56;;;;;;;15.82;5.90;;;;;;;-144.51;100.00;69251.94;4890623;29;20041;-78
2021/10/11 06:24:41;;;;;;;15.93;7.55;;;;;;;-144.51;100.00;69251.94;4911118;29;20513;-77
2021/10/11 06:27:27;;;;;;;10.32;5.38;;;;;;;-144.51;100.00;69251.94;4893392;29;20489;-77
2021/10/11 06:30:31;;;;;;;17.30;7.18;;;;;;;-144.51;100.00;69251.94;4890916;29;20227;-78
2021/10/11 06:33:34;;;;;;;24.77;8.10;;;;;;;-144.51;100.00;69251.94;4892102;29;20037;-78
2021/10/11 06:36:38;;;;;;;15.95;8.30;;;;;;;-144.51;100.00;69251.94;4886609;29;20044;-79
2021/10/11 06:39:23;;;;;;;15.38;8.10;;;;;;;-144.51;100.00;69251.94;4906121;29;20041;-78
2021/10/11 06:42:07;;;;;;;14.18;6.05;;;;;;;-144.51;100.00;69251.94;4888258;29;20424;-79
2021/10/11 06:45:11;;;;;;;16.25;8.18;;;;;;;-144.51;100.00;69251.94;4887652;29;20514;-79
2021/10/11 06:47:56;;;;;;;14.35;6.40;;;;;;;-144.51;100.00;69251.94;4877814;29;20053;-79
2021/10/11 06:50:41;;;;;;;15.45;5.63;;;;;;;-144.51;100.00;69251.94;4889892;29;20044;-78
2021/10/11 06:53:25;;;;;;;16.63;11.55;;;;;;;-144.51;100.00;69251.94;4886967;29;20041;-79
2021/10/11 06:56:10;;;;;;;12.93;6.03;;;;;;;-144.51;100.00;69251.94;4886375;29;20036;-77
2021/10/11 06:58:55;;;;;;;14.77;5.70;;;;;;;-144.51;100.00;69251.94;4888042;29;20049;-79
2021/10/11 07:01:42;;;;;;;13.45;6.72;;;;;;;-144.51;100.00;69251.94;4889570;29;20045;-78
2021/10/11 07:04:27;;;;;;;23.67;9.25;;;;;;;-144.51;100.00;69251.94;4903591;29;20045;-77
2021/10/11 07:07:12;;;;;;;;;;;;;;;-144.51;100.00;69251.94;4898536;29;20421;-77
2021/10/11 07:09:57;;;;;;;22.50;9.30;;;;;;;-144.51;100.00;69251.94;4899318;29;19920;-77
2021/10/11 07:13:02;;;;;;;16.38;6.97;;;;;;;-144.51;100.00;69251.94;4898003;29;20041;-76
2021/10/11 07:15:47;;;;;;;15.63;7.40;;;;;;;-144.51;100.00;69251.94;4900866;29;20040;-82
2021/10/11 07:18:33;;;;;;;21.33;8.75;;;;;;;-144.51;100.00;69251.94;4894685;29;20041;-82
2021/10/11 07:21:18;;;;;;;21.98;10.68;;;;;;;-144.51;100.00;69251.94;4902406;29;20049;-77
2021/10/11 07:24:03;;;;;;;37.53;12.73;;;;;;;-144.51;100.00;69251.94;4898012;29;20044;-76
2021/10/11 07:26:48;;;;;;;22.50;11.23;;;;;;;-144.51;100.00;69251.94;4896758;29;20497;-77
2021/10/11 07:29:33;;;;;;;15.50;7.55;;;;;;;-144.51;100.00;69251.94;4896807;29;20041;-76
2021/10/11 07:32:18;;;;;;;17.50;7.70;;;;;;;-144.51;100.00;69251.94;4896862;29;20052;-77
2021/10/11 07:38:06;;;;;;;25.38;9.93;;;;;;;-144.51;100.00;69251.94;4900183;29;20045;-77
2021/10/11 07:40:52;;;;;;;13.98;7.45;;;;;;;-144.51;100.00;69251.94;4897933;29;20048;-76
2021/10/11 07:43:36;;;;;;;16.27;8.75;;;;;;;-144.51;100.00;69251.94;4896122;29;20433;-76
2021/10/11 07:46:21;;;;;;;16.80;7.45;;;;;;;-144.51;100.00;69251.94;4898806;29;20048;-76
2021/10/11 07:49:08;;;;;;;15.75;6.80;;;;;;;-144.51;100.00;69251.94;4897912;29;20548;-76
2021/10/11 07:52:12;;;;;;;14.73;8.75;;;;;;;-144.51;100.00;69251.94;4886221;29;20048;-76
2021/10/11 07:54:56;;;;;;;13.57;5.70;;;;;;;-144.51;100.00;69251.94;4897410;29;20053;-76
2021/10/11 07:57:42;;;;;;;9.77;5.50;;;;;;;-144.51;100.00;69251.94;4896195;29;20041;-76
2021/10/11 08:00:27;;;;;;;23.42;8.07;;;;;;;-144.51;100.00;69251.94;4897264;29;20048;-76
2021/10/11 08:03:11;;;;;;;;;;;;;;;-144.51;100.00;69251.94;4896755;29;20041;-75
2021/10/11 08:06:15;;;;;;;21.17;6.97;;;;;;;-144.51;100.00;69251.94;4897054;29;19927;-75
2021/10/11 08:09:00;;;;;;;17.83;8.27;;;;;;;-144.51;100.00;69251.94;4896242;29;20044;-74
2021/10/11 08:11:46;;;;;;;13.30;6.80;;;;;;;-144.51;100.00;69251.94;4885151;29;20417;-74
2021/10/11 08:14:31;;;;;;;14.60;8.85;;;;;;;-144.51;100.00;69251.94;4897182;29;20040;-75
2021/10/11 08:17:16;;;;;;;18.55;8.57;;;;;;;-144.51;100.00;69251.94;4896115;29;20048;-76
2021/10/11 08:20:01;;;;;;;15.00;7.35;;;;;;;-144.51;100.00;69251.94;4897339;29;20040;-75
2021/10/11 08:22:46;;;;;;;;;;;;;;;-144.51;100.00;69251.94;4896770;29;20057;-75
2021/10/11 08:25:34;;;;;;;20.53;8.87;;;;;;;-144.51;100.00;69251.94;4897300;29;20268;-76
2021/10/11 08:28:18;;;;;;;31.45;9.88;;;;;;;-144.51;100.00;69251.94;4898303;29;20300;-76
2021/10/11 08:31:03;;;;;;;34.70;9.13;;;;;;;-144.51;100.00;69251.94;4896224;29;20041;-76
2021/10/11 08:33:48;;;;;;;15.38;7.95;;;;;;;-144.51;100.00;69251.94;4900196;29;20040;-76
2021/10/11 08:36:33;;;;;;;;;;;;;;;-144.51;100.00;69251.94;4895339;29;20445;-76
2021/10/11 08:39:17;;;;;;;23.33;8.18;;;;;;;-144.51;100.00;69251.94;4906112;29;19915;-77
2021/10/11 08:42:04;;;;;;;19.00;8.73;;;;;;;-144.51;100.00;69251.94;4901768;29;20040;-76
2021/10/11 08:44:49;;;;;;;21.20;8.02;;;;;;;-144.51;100.00;69251.94;4900847;29;20056;-76
2021/10/11 08:47:53;;;;;;;16.85;8.00;;;;;;;-144.51;100.00;69251.94;4902059;29;20041;-77
2021/10/11 08:50:37;;;;;;;19.50;8.32;;;;;;;-144.51;100.00;69251.94;4893928;29;20045;-76
2021/10/11 08:53:23;;;;;;;16.40;8.55;;;;;;;-144.51;100.00;69251.94;4888994;29;20052;-76
2021/10/11 08:56:11;;;;;;;12.93;6.63;;;;;;;-144.51;100.00;69251.94;4881951;29;20060;-77
2021/10/11 08:58:56;;;;;;;19.63;7.57;;;;;;;-144.51;100.00;69251.94;4897182;29;20040;-77
2021/10/11 09:01:40;;;;;;;14.43;6.35;;;;;;;-144.51;100.00;69251.94;4898683;29;20048;-76
2021/10/11 09:04:25;;;;;;;15.60;6.88;;;;;;;-144.51;100.00;69251.94;4901659;29;20044;-76
2021/10/11 09:10:13;;;;;;;16.75;7.53;;;;;;;-144.51;100.00;69251.94;4899999;29;20392;-76
2021/10/11 09:12:58;;;;;;;15.20;7.25;;;;;;;-144.51;100.00;69251.94;4897548;29;20045;-76
2021/10/11 09:15:43;;;;;;;15.90;6.40;;;;;;;-144.51;100.00;69251.94;4888040;29;20049;-76
2021/10/11 09:18:29;;;;;;;;;;;;;;;-144.51;100.00;69251.94;4897602;29;20041;-77
2021/10/11 09:21:14;;;;;;;15.73;7.13;;;;;;;-144.51;100.00;69251.94;4908407;29;19915;-79
2021/10/11 09:24:29;;;;;;;;;;;;;;;-144.51;100.00;69251.94;4906137;29;20036;-79
2021/10/11 09:27:49;;;;;;;13.35;6.43;;;;;;;-144.51;100.00;69251.94;4888673;29;20273;-79
2021/10/11 09:30:39;;;;;;;13.52;7.25;;;;;;;-144.51;100.00;69251.94;4912774;29;20044;-80
2021/10/11 09:33:25;;;;;;;13.30;6.85;;;;;;;-144.51;100.00;69251.94;4891166;29;20033;-79
2021/10/11 09:36:29;;;;;;;15.50;5.80;;;;;;;-144.51;100.00;69251.94;4899694;29;20045;-79
2021/10/11 09:39:14;;;;;;;9.93;4.50;;;;;;;-144.51;100.00;69251.94;4913943;29;20044;-79
2021/10/11 09:42:01;;;;;;;12.85;6.53;;;;;;;-144.51;100.00;69251.94;4904310;29;20421;-79
2021/10/11 09:48:09;;;;;;;17.02;5.63;;;;;;;-144.51;100.00;69251.94;4910713;29;20040;-78
2021/10/11 09:50:54;;;;;;;12.18;5.57;;;;;;;-144.51;100.00;69251.94;4912296;29;20044;-78
2021/10/11 09:53:39;;;;;;;13.18;4.22;;;;;;;-144.51;100.00;69251.94;4913114;29;20040;-79
2021/10/11 09:56:26;;;;;;;3.88;2.28;;;;;;;-144.51;100.00;69251.94;4892542;29;20060;-79
2021/10/11 09:59:11;;;;;;;3.92;2.33;;;;;;;-144.51;100.00;69251.94;4905525;29;20048;-80
2021/10/11 10:01:57;;;;;;;10.48;3.15;;;;;;;-144.51;100.00;69251.94;4913611;29;20040;-80
2021/10/11 10:04:42;;;;;;;3.60;2.20;;;;;;;-144.51;100.00;69251.94;4904544;29;20044;-79
2021/10/11 10:07:30;;;;;;;4.47;2.30;;;;;;;-144.51;100.00;69251.94;4902711;29;20502;-80
2021/10/11 10:10:19;;;;;;;4.82;2.30;;;;;;;-144.51;100.00;69251.94;4907063;29;20040;-79
2021/10/11 10:13:18;;;;;;;6.45;2.10;;;;;;;-144.51;100.00;69251.94;4902459;29;20498;-79
2021/10/11 10:16:22;;;;;;;6.70;2.35;;;;;;;-144.51;100.00;69251.94;4902334;29;20049;-79
2021/10/11 10:19:28;;;;;;;7.95;2.83;;;;;;;-144.51;100.00;69251.94;4886378;29;20040;-79
2021/10/11 10:22:16;;;;;;;5.63;2.25;;;;;;;-144.51;100.00;69251.94;4905097;29;20060;-80
2021/10/11 10:25:10;;;;;;;5.50;1.60;;;;;;;-144.51;100.00;69251.94;4905701;29;20045;-78
2021/10/11 10:28:10;;;;;;;4.93;1.92;;;;;;;-144.51;100.00;69251.94;4908888;29;20048;-78
2021/10/11 10:31:00;;;;;;;2.58;1.40;;;;;;;-144.51;100.00;69251.94;4907087;29;20048;-78
2021/10/11 10:33:45;;;;;;;7.90;1.52;;;;;;;-144.51;100.00;69251.94;4901889;29;20052;-78
2021/10/11 10:37:10;;;;;;;6.63;1.55;;;;;;;-144.51;100.00;69251.94;4903730;29;20045;-79
2021/10/11 10:39:54;;;;;;;;;;;;;;;-144.51;100.00;69251.94;4902469;29;20053;-79
2021/10/11 10:42:39;;;;;;;3.40;1.90;;;;;;;-144.51;100.00;69251.94;4901589;29;19915;-78
2021/10/11 10:45:26;;;;;;;5.45;1.80;;;;;;;-144.51;100.00;69251.94;4893658;29;20048;-79
2021/10/11 10:48:21;;;;;;;3.47;1.38;;;;;;;-144.51;100.00;69251.94;4903849;29;20044;-79
2021/10/11 10:51:05;;;;;;;5.13;1.80;;;;;;;-144.51;100.00;69251.94;4907949;29;20049;-79
2021/10/11 10:54:15;;;;;;;3.47;1.27;;;;;;;-144.51;100.00;69251.94;4904599;29;20040;-79
2021/10/11 10:57:00;;;;;;;3.67;1.20;;;;;;;-144.51;100.00;69251.94;4897980;29;20052;-77
2021/10/11 10:59:55;;;;;;;;;;;;;;;-144.51;100.00;69251.94;4905400;29;20107;-76
2021/10/11 11:02:49;;;;;;;4.43;1.80;;;;;;;-144.51;100.00;69251.94;4893302;29;19920;-76
2021/10/11 11:05:55;;;;;;;2.33;1.45;;;;;;;-144.51;100.00;69251.94;4898510;29;21706;-76
2021/10/11 11:08:59;;;;;;;260.02;47.17;;;;;;;-144.51;100.00;69251.94;4900585;29;20043;-77
2021/10/11 11:11:47;;;;;;;27.58;4.97;;;;;;;-144.51;100.00;69251.94;4917674;29;20491;-76
2021/10/11 11:17:58;;;;;;;17.30;3.55;;;;;;;-144.51;100.00;69251.94;4906041;29;20506;-77
2021/10/11 11:20:44;;;;;;;5.78;2.35;;;;;;;-144.51;100.00;69251.94;4897381;29;20048;-76
2021/10/11 11:23:34;;;;;;;6.35;2.38;;;;;;;-144.51;100.00;69251.94;4880111;29;20067;-76
2021/10/11 11:26:19;;;;;;;10.10;2.03;;;;;;;-144.51;100.00;69251.94;4898097;29;20409;-76
2021/10/11 11:29:04;;;;;;;2.00;1.48;;;;;;;-144.51;100.00;69251.94;4897711;29;20040;-76
2021/10/11 11:31:54;;;;;;;9.32;2.20;;;;;;;-144.51;100.00;69251.94;4898177;29;20048;-79
2021/10/11 11:34:38;;;;;;;5.00;1.80;;;;;;;-144.51;100.00;69251.94;4893422;29;20421;-76
2021/10/11 11:37:23;;;;;;;2.28;1.35;;;;;;;-144.51;100.00;69251.94;4896208;29;20048;-76
2021/10/11 11:40:08;;;;;;;6.38;2.13;;;;;;;-144.51;100.00;69251.94;4895798;29;20040;-77
2021/10/11 11:42:53;;;;;;;;;;;;;;;-144.51;100.00;69251.94;4889426;29;20513;-77
2021/10/11 11:45:59;;;;;;;5.15;1.40;;;;;;;-144.51;100.00;69251.94;4886879;29;19915;-76
2021/10/11 11:48:44;;;;;;;2.13;1.40;;;;;;;-144.51;100.00;69251.94;4900057;29;20045;-82
2021/10/11 11:51:29;;;;;;;;;;;;;;;-144.51;100.00;69251.94;4904349;29;20417;-82
2021/10/11 11:54:17;;;;;;;5.38;2.28;;;;;;;-144.51;100.00;69251.94;4896362;29;19916;-82
2021/10/11 11:57:21;;;;;;;7.90;2.45;;;;;;;-144.51;100.00;69251.94;4897445;29;20036;-83
2021/10/11 12:00:06;;;;;;;;;;;;;;;-144.51;100.00;69251.94;4902680;29;20036;-83
2021/10/11 12:05:59;;;;;;;7.22;2.60;;;;;;;-144.51;100.00;69251.94;4894604;29;20048;-83
2021/10/11 12:08:46;;;;;;;5.88;2.65;;;;;;;-144.51;100.00;69251.94;4904338;29;20044;-83
2021/10/11 12:11:31;;;;;;;10.43;3.03;;;;;;;-144.51;100.00;69251.94;4896735;29;20041;-83
2021/10/11 12:14:26;;;;;;;8.45;3.35;;;;;;;-144.51;100.00;69251.94;4902488;29;20512;-83
2021/10/11 12:17:11;;;;;;;6.47;2.40;;;;;;;-144.51;100.00;69251.94;4906108;29;20041;-84
2021/10/11 12:19:57;;;;;;;10.30;2.72;;;;;;;-144.51;100.00;69251.94;4904284;29;20504;-83
2021/10/11 12:22:43;;;;;;;7.53;2.83;;;;;;;-144.51;100.00;69251.94;4890108;29;20052;-83
2021/10/11 12:28:47;;;;;;;8.80;3.42;;;;;;;-144.51;100.00;69251.94;4909415;29;20048;-83
2021/10/11 12:31:34;;;;;;;9.73;3.15;;;;;;;-144.51;100.00;69251.94;4907345;29;20417;-83
2021/10/11 12:34:24;;;;;;;14.32;4.38;;;;;;;-144.51;100.00;69251.94;4904467;29;20493;-83
2021/10/11 12:40:21;;;;;;;11.23;4.35;;;;;;;-144.51;100.00;69251.94;4905817;29;20440;-83
2021/10/11 12:43:22;;;;;;;8.00;3.97;;;;;;;-144.51;100.00;69251.94;4904283;29;20449;-83
2021/10/11 12:46:09;;;;;;;7.68;3.75;;;;;;;-144.51;100.00;69251.94;4907905;29;20048;-83
2021/10/11 12:49:14;;;;;;;7.78;4.90;;;;;;;-144.51;100.00;69251.94;4905484;29;20048;-83
2021/10/11 12:52:18;;;;;;;10.65;4.00;;;;;;;-144.51;100.00;69251.94;4903184;29;20041;-83
2021/10/11 12:55:14;;;;;;;9.93;4.10;;;;;;;-144.51;100.00;69251.94;4905703;29;20052;-83
2021/10/11 12:58:22;;;;;;;17.00;4.82;;;;;;;-144.51;100.00;69251.94;4898316;29;20049;-82
2021/10/11 13:01:07;;;;;;;15.98;4.63;;;;;;;-144.51;100.00;69251.94;4902806;29;20041;-82
2021/10/11 13:03:52;;;;;;;;;;;;;;;-144.51;100.00;69251.94;4889503;29;20052;-83
2021/10/11 13:06:37;;;;;;;8.07;3.50;;;;;;;-144.51;100.00;69251.94;4902449;29;19919;-83
2021/10/11 13:09:23;;;;;;;15.15;5.70;;;;;;;-144.51;100.00;69251.94;4876633;29;20053;-82
2021/10/11 13:15:31;;;;;;;13.20;5.30;;;;;;;-144.51;100.00;69251.94;4898095;29;20044;-83
2021/10/11 13:18:16;;;;;;;7.78;4.03;;;;;;;-144.51;100.00;69251.94;4904088;29;20044;-83
2021/10/11 13:21:01;;;;;;;6.57;3.95;;;;;;;-144.51;100.00;69251.94;4890327;29;20049;-82
2021/10/11 13:23:47;;;;;;;7.85;3.95;;;;;;;-144.51;100.00;69251.94;4893640;29;20518;-83
2021/10/11 13:26:31;;;;;;;;;;;;;;;-144.51;100.00;69251.94;4904702;29;20040;-83
2021/10/11 13:32:58;;;;;;;11.07;4.05;;;;;;;-144.51;100.00;69251.94;4904854;29;20044;-83
2021/10/11 14:28:13;;;;;;;13.63;5.22;;;;;;;-144.51;100.00;69251.94;4879191;29;20041;-64
2021/10/11 15:52:04;;;;;;;11.05;5.07;;;;;;;-144.51;100.00;69251.94;4868805;29;20038;-62
2021/10/11 16:01:51;;;;;;;14.90;5.72;;;;;;;-144.51;100.00;69251.94;4879253;29;20041;-62
2021/10/11 16:04:37;;;;;;;;;;;;;;;-144.51;100.00;69251.94;4866226;29;20041;-60
2021/10/11 16:07:21;;;;;;;13.32;5.43;;;;;;;-144.51;100.00;69251.94;4869127;29;19920;-63
2021/10/11 16:10:16;;;;;;;23.55;6.05;;;;;;;-144.51;100.00;69251.94;4878684;29;20057;-63
2021/10/11 16:13:01;;;;;;;16.35;6.60;;;;;;;-144.51;100.00;69251.94;4872062;29;20045;-62
2021/10/11 16:16:06;;;;;;;17.27;5.10;;;;;;;-144.51;100.00;69251.94;4860943;29;20041;-61
2021/10/11 16:18:51;;;;;;;15.88;5.93;;;;;;;-144.51;100.00;69251.94;4867086;29;20053;-61
2021/10/11 16:21:36;;;;;;;22.10;5.57;;;;;;;-144.51;100.00;69251.94;4860191;29;20045;-63
2021/10/11 16:24:21;;;;;;;;;;;;;;;-144.51;100.00;69251.94;4871765;29;20040;-61
2021/10/11 16:27:06;;;;;;;16.40;6.00;;;;;;;-144.51;100.00;69251.94;4875557;29;19915;-62
2021/10/11 16:29:50;;;;;;;;;;;;;;;-144.51;100.00;69251.94;4869089;29;20049;-61
2021/10/11 16:32:35;;;;;;;17.98;5.60;;;;;;;-144.51;100.00;69251.94;4873008;29;19915;-63
2021/10/11 16:35:21;;;;;;;22.45;7.45;;;;;;;-144.51;100.00;69251.94;4852656;29;20057;-63
2021/10/11 16:38:06;;;;;;;15.70;5.80;;;;;;;-144.51;100.00;69251.94;4860072;29;20067;-61
2021/10/11 16:40:51;;;;;;;15.88;5.60;;;;;;;-144.51;100.00;69251.94;4859073;29;20041;-61
2021/10/11 16:43:39;;;;;;;14.77;4.90;;;;;;;-144.51;100.00;69251.94;4860303;29;20054;-62
2021/10/11 16:46:24;;;;;;;20.35;6.30;;;;;;;-144.51;100.00;69251.94;4860150;29;20045;-62
2021/10/11 16:52:31;;;;;;;22.15;4.55;;;;;;;-144.51;100.00;69251.94;4872039;29;20040;-61
2021/10/11 16:55:18;;;;;;;11.88;5.15;;;;;;;-144.51;100.00;69251.94;4859670;29;20050;-63
2021/10/11 16:58:03;;;;;;;14.07;5.00;;;;;;;-144.51;100.00;69251.94;4862113;29;20054;-61
2021/10/11 17:00:48;;;;;;;;;;;;;;;-144.51;100.00;69251.94;4860411;29;20041;-61
2021/10/11 17:03:32;;;;;;;9.93;4.18;;;;;;;-144.51;100.00;69251.94;4871961;29;20368;-61
2021/10/11 17:06:36;;;;;;;;;;;;;;;-144.51;100.00;69251.94;4878400;29;20060;-62
2021/10/11 17:09:21;;;;;;;8.30;3.80;;;;;;;-144.51;100.00;69251.94;4870707;29;19916;-63
2021/10/11 17:12:25;;;;;;;14.32;4.85;;;;;;;-144.51;100.00;69251.94;4878157;29;20517;-62
2021/10/11 17:15:11;;;;;;;14.93;4.90;;;;;;;-144.51;100.00;69251.94;4878125;29;20049;-63
2021/10/11 17:17:56;;;;;;;11.20;4.45;;;;;;;-144.51;100.00;69251.94;4878022;29;20053;-63
2021/10/11 17:20:41;;;;;;;14.75;6.05;;;;;;;-144.51;100.00;69251.94;4878423;29;20413;-63
2021/10/11 17:23:26;;;;;;;;;;;;;;;-144.51;100.00;69251.94;4878628;29;20044;-61
2021/10/11 17:26:10;;;;;;;14.77;8.32;;;;;;;-144.51;100.00;69251.94;4877987;29;19916;-62
2021/10/11 17:28:57;;;;;;;19.55;9.35;;;;;;;-144.51;100.00;69251.94;4869993;29;20049;-62
2021/10/11 17:31:42;;;;;;;17.58;8.55;;;;;;;-144.51;100.00;69251.94;4871331;29;20485;-63
2021/10/11 17:34:27;;;;;;;;;;;;;;;-144.51;100.00;69251.94;4881352;29;20401;-60
2021/10/11 17:37:12;;;;;;;23.92;9.18;;;;;;;-144.51;100.00;69251.94;4872755;29;20379;-63
2021/10/11 17:39:57;;;;;;;26.95;13.10;;;;;;;-144.51;100.00;69251.94;4881372;29;20049;-62
2021/10/11 17:42:41;;;;;;;;;;;;;;;-144.51;100.00;69251.94;4881384;29;20053;-66
2021/10/11 17:45:26;;;;;;;32.55;10.38;;;;;;;-144.51;100.00;69251.94;4878974;29;19920;-63
2021/10/11 17:48:11;;;;;;;23.67;9.35;;;;;;;-144.51;100.00;69251.94;4871168;29;20041;-63
2021/10/11 17:54:00;;;;;;;21.92;8.95;;;;;;;-144.51;100.00;69251.94;4871278;29;20041;-64
2021/10/11 17:56:44;;;;;;;;;;;;;;;-144.51;100.00;69251.94;4878126;29;20049;-62
2021/10/11 18:02:33;;;;;;;20.77;9.43;;;;;;;-144.51;100.00;69251.94;4870145;29;20037;-64
2021/10/11 18:05:37;;;;;;;28.15;9.80;;;;;;;-144.51;100.00;69251.94;4862312;29;20422;-63
2021/10/11 18:08:40;;;;;;;21.27;9.05;;;;;;;-144.51;100.00;69251.94;4869934;29;20037;-62
2021/10/11 18:11:25;;;;;;;16.55;8.82;;;;;;;-144.51;100.00;69251.94;4879942;29;20052;-62
2021/10/11 18:14:10;;;;;;;12.48;6.88;;;;;;;-144.51;100.00;69251.94;4880838;29;20045;-63
2021/10/11 18:16:55;;;;;;;;;;;;;;;-144.51;100.00;69251.94;4877209;29;20045;-62
2021/10/11 18:19:40;;;;;;;19.90;9.33;;;;;;;-144.51;100.00;69251.94;4862663;29;19916;-62
2021/10/11 18:22:25;;;;;;;;;;;;;;;-144.51;100.00;69251.94;4878519;29;20112;-62
2021/10/11 18:25:11;;;;;;;18.70;9.45;;;;;;;-144.51;100.00;69251.94;4874863;29;19916;-63
2021/10/11 18:27:56;;;;;;;20.88;9.50;;;;;;;-144.51;100.00;69251.94;4868932;29;20045;-63
2021/10/11 18:30:40;;;;;;;;;;;;;;;-144.51;100.00;69251.94;4865030;29;20057;-62
2021/10/11 18:33:44;;;;;;;23.30;10.10;;;;;;;-144.51;100.00;69251.94;4867111;29;19915;-63
2021/10/11 18:36:28;;;;;;;22.17;9.98;;;;;;;-144.51;100.00;69251.94;4874166;29;20037;-62
2021/10/11 18:39:13;;;;;;;26.55;9.38;;;;;;;-144.51;100.00;69251.94;4875385;29;20671;-64
2021/10/11 18:41:58;;;;;;;18.00;9.43;;;;;;;-144.51;100.00;69251.94;4876739;29;20489;-67
2021/10/11 18:44:43;;;;;;;26.83;9.27;;;;;;;-144.51;100.00;69251.94;4872371;29;20686;-62
2021/10/11 18:47:31;;;;;;;;;;;;;;;-144.51;100.00;69251.94;4873019;29;20044;-62
2021/10/11 18:50:16;;;;;;;27.98;10.10;;;;;;;-144.51;100.00;69251.94;4879174;29;19919;-62
2021/10/11 18:53:20;;;;;;;;;;;;;;;-144.51;100.00;69251.94;4865205;29;20049;-62
2021/10/11 18:56:06;;;;;;;20.25;8.45;;;;;;;-144.51;100.00;69251.94;4879832;29;19915;-62
2021/10/11 18:58:51;;;;;;;21.42;9.55;;;;;;;-144.51;100.00;69251.94;4876649;29;20517;-64
2021/10/11 19:01:36;;;;;;;22.63;7.03;;;;;;;-144.51;100.00;69251.94;4874528;29;20041;-62
2021/10/11 19:04:25;;;;;;;16.65;7.70;;;;;;;-144.51;100.00;69251.94;4862322;29;20050;-62
2021/10/11 19:07:10;;;;;;;14.25;6.82;;;;;;;-144.51;100.00;69251.94;4874569;29;20066;-61
2021/10/11 19:09:55;;;;;;;;;;;;;;;-144.51;100.00;69251.94;4871015;29;20045;-61
2021/10/11 19:12:40;;;;;;;20.60;5.72;;;;;;;-144.51;100.00;69251.94;4878942;29;19919;-62
2021/10/11 19:15:25;;;;;;;18.90;6.57;;;;;;;-144.51;100.00;69251.94;4877856;29;20045;-62
2021/10/11 19:18:13;;;;;;;108.18;19.75;;;;;;;-144.51;100.00;69251.94;4875341;29;20498;-62
2021/10/11 19:21:02;;;;;;;138.13;29.55;;;;;;;-144.51;100.00;69251.94;4872039;29;20045;-63
2021/10/11 19:23:46;;;;;;;84.45;22.45;;;;;;;-144.51;100.00;69251.94;4872057;29;20405;-62
2021/10/11 19:26:32;;;;;;;68.40;17.55;;;;;;;-144.51;100.00;69251.94;4876594;29;20041;-63
2021/10/11 19:29:17;;;;;;;47.53;14.55;;;;;;;-144.51;100.00;69251.94;4862336;29;20049;-62
2021/10/11 19:32:03;;;;;;;82.15;18.25;;;;;;;-144.51;100.00;69251.94;4863867;29;20426;-64
2021/10/11 19:34:47;;;;;;;57.22;14.60;;;;;;;-144.51;100.00;69251.94;4874651;29;20474;-62
2021/10/11 19:37:33;;;;;;;;;;;;;;;-144.51;100.00;69251.94;4874560;29;20044;-62
2021/10/11 19:40:19;;;;;;;19.05;7.93;;;;;;;-144.51;100.00;69251.94;4879090;29;19916;-62
2021/10/11 19:43:05;;;;;;;37.45;12.20;;;;;;;-144.51;100.00;69251.94;4865130;29;20049;-64
2021/10/11 19:45:51;;;;;;;36.13;10.75;;;;;;;-144.51;100.00;69251.94;4878401;29;20067;-63
2021/10/11 19:48:37;;;;;;;21.70;8.82;;;;;;;-144.51;100.00;69251.94;4873422;29;20064;-63
2021/10/11 19:51:22;;;;;;;;;;;;;;;-144.51;100.00;69251.94;4878808;29;20049;-61
2021/10/11 19:54:07;;;;;;;35.53;9.70;;;;;;;-144.51;100.00;69251.94;4877203;29;19915;-63
2021/10/11 19:57:11;;;;;;;25.02;9.18;;;;;;;-144.51;100.00;69251.94;4878760;29;20045;-62
2021/10/11 19:59:56;;;;;;;;;;;;;;;-144.51;100.00;69251.94;4879226;29;20045;-62
2021/10/11 20:02:59;;;;;;;21.42;8.07;;;;;;;-144.51;100.00;69251.94;4862567;29;19919;-62
2021/10/11 20:05:44;;;;;;;23.27;9.65;;;;;;;-144.51;100.00;69251.94;4871864;29;20046;-63
2021/10/11 20:11:33;;;;;;;19.38;7.82;;;;;;;-144.51;100.00;69251.94;4922133;29;19923;-79
2021/10/11 20:14:21;;;;;;;;;;;;;;;-144.51;100.00;69251.94;4909286;29;20044;-79
2021/10/11 20:17:06;;;;;;;18.48;7.45;;;;;;;-144.51;100.00;69251.94;4920617;29;19916;-81
2021/10/11 20:22:55;;;;;;;11.23;6.63;;;;;;;-144.51;100.00;69251.94;4918573;29;20044;-82
2021/10/11 20:25:40;;;;;;;15.02;7.70;;;;;;;-144.51;100.00;69251.94;4923888;29;20040;-80
2021/10/11 20:28:25;;;;;;;17.40;6.50;;;;;;;-144.51;100.00;69251.94;4908363;29;20514;-82
2021/10/11 20:34:14;;;;;;;12.55;6.57;;;;;;;-144.51;100.00;69251.94;4918357;29;20044;-82
2021/10/11 20:36:59;;;;;;;;;;;;;;;-144.51;100.00;69251.94;4919569;29;20048;-81
2021/10/11 20:39:43;;;;;;;14.20;7.65;;;;;;;-144.51;100.00;69251.94;4919748;29;19923;-82
2021/10/11 20:43:05;;;;;;;17.67;7.45;;;;;;;-144.51;100.00;69251.94;4919874;29;20043;-82
2021/10/11 20:45:51;;;;;;;16.05;7.13;;;;;;;-144.51;100.00;69251.94;4914522;29;20044;-82